Sabana De La Mar, Dominican Republic

9:14 AM AST on February 11, 2016 (GMT -0400)
Restaurant Jhonson | | Change Station
CLOSE
Current Station
Personal Weather Station
Location: Sabana De La Mar, HATO MAYOR
Elevation: 10 ft
Nearby Weather Stations

Elev 10 ft 19.07 °N, 69.38 °W | Updated 4 seconds ago

Mostly Cloudy
Mostly Cloudy
78.4 °F
Feels Like 81 °F
N
0.9
Wind Variable Wind from West
Gusts 2.5 mph

Today
High -- | Low -- °F
--% Chance of Precip.
Yesterday
High -- | Low -- °F
Precip. -- in
Pressure 30.09 in
Visibility 6.2 miles
Clouds Mostly Cloudy 1800 ft
Heat Index 81 °F
Dew Point 73 °F
Humidity 84%
Rainfall 0.00 in
Snow Depth Not available.
7:08 AM 6:35 PM
Waxing Crescent, 12% visible
METAR MDAB 111300Z 00000KT 9999 BKN018 25/22 Q1019
Pressure 30.09 in
Visibility 6.2 miles
Clouds Mostly Cloudy 1800 ft
Heat Index 81 °F
Dew Point 73 °F
Humidity 84%
Rainfall 0.00 in
Snow Depth Not available.
7:08 AM 6:35 PM
Waxing Crescent, 12% visible
METAR MDAB 111300Z 00000KT 9999 BKN018 25/22 Q1019

10-Day Weather Forecast

No radar image for this location.
×

Almanac

Astronomy

Feb. 11, 2016 Rise Set
Actual Time
Civil Twilight
Nautical Twilight
Astronomical Twilight
Moon
Length of Visible Light
Length of Day
Tomorrow will be .
, % of the Moon is Illuminated

Today's Extremes

Country Highs Country Lows

Community

WunderPhotos

Upload Photos

1,892,040 photos uploaded!

WunderBlog® & News

Nearby

Air Quality

  Air Quality AQ Index Pollutant
Not available.

Snow Depth

Station Depth Elevation

Earthquake Activity

City Distance Mag. Time & Date
Minimum magnitude displayed is 2.5.

Coastal Water Temperatures

Place Temperature

Stations

Nearby Weather Stations

Station Location Temp. Windchill Dew Point Humidity Wind Precip. Elev Updated Type